aviador You're here:

UUEE Decoded Metar

MOSCOW/SHEREMETYEVO in RUSSIA
Report Time2017-09-26 12:30:00
UTC Time2017-09-26 12:44:39
Flight Rules vfr VFR
Wind010° at 10 kt
W.Decomp.*RWY 07: 3.4 kt HW 9.4 kt LCW
W.Rank010° ranks 25
Current wind is above 010° avg. (7.8)
Visibility9999 m
Phenomena:N/A
Clouds:Broken 032 Hf
Expected CloudBase > 2,800 ft AGL from Temp-Dew spread
Ceiling3,200 ft
Temp12°C (ISA -2)
Dew Point05°C (63% RH)
AAT7.3°C
QNH1039 hPa
Density Alt-338 ft
Elevation623 ft
Report Wrong Elevation
Raw Report
METAR UUEE 261230Z 01005MPS 9999 BKN032 12/05 Q1039 R06L/CLRD62 R06R/CLRD62
NOSIG=

Extra information for UUEE:More info

Metar Taf Metar & Taf Last 4 Metars F.Rules Stats Wind Profile Meteogram Temp Stats Airport Information Weather charts Add Link Nearby VenuesMetar ALERT Operation Metar Decoded Social comments